createdAt,value
2019-01-23T00:02:25.383Z,126.07
2019-01-23T00:05:05.472Z,140.05
2019-01-23T00:07:45.628Z,125.40
2019-01-23T00:10:27.995Z,132.82
2019-01-23T00:13:08.116Z,134.63
2019-01-23T00:15:48.272Z,125.95
2019-01-23T00:18:29.350Z,125.90
2019-01-23T00:21:10.207Z,126.65
2019-01-23T00:23:50.577Z,129.95
2019-01-23T00:26:30.677Z,125.53
2019-01-23T00:29:11.311Z,131.20
2019-01-23T00:31:51.876Z,123.95
2019-01-23T00:34:32.413Z,125.97
2019-01-23T00:37:12.389Z,132.07
2019-01-23T00:39:52.419Z,133.95
2019-01-23T00:42:32.417Z,126.30
2019-01-23T00:45:12.603Z,135.97
2019-01-23T00:47:52.919Z,126.42
2019-01-23T00:50:33.185Z,125.85
2019-01-23T00:53:12.967Z,125.00
2019-01-23T00:55:53.149Z,129.18
2019-01-23T00:58:33.224Z,129.03
2019-01-23T01:01:13.600Z,127.82
2019-01-23T01:03:53.524Z,131.60
2019-01-23T01:06:33.418Z,122.42
2019-01-23T01:09:13.431Z,128.68
2019-01-23T01:11:53.301Z,128.80
2019-01-23T01:14:33.032Z,125.50
2019-01-23T01:17:13.004Z,125.47
2019-01-23T01:19:53.214Z,129.63
2019-01-23T01:22:33.258Z,128.80
2019-01-23T01:25:13.173Z,128.27
2019-01-23T01:27:53.263Z,128.32
2019-01-23T01:30:33.358Z,129.12
2019-01-23T01:33:13.382Z,133.15
2019-01-23T01:35:53.485Z,131.57
2019-01-23T01:38:34.433Z,126.85
2019-01-23T01:41:14.438Z,133.67
2019-01-23T01:43:54.760Z,128.57
2019-01-23T01:46:34.930Z,133.27
2019-01-23T01:49:14.222Z,134.25
2019-01-23T01:51:54.412Z,131.40
2019-01-23T01:54:33.852Z,128.23
2019-01-23T01:57:13.915Z,126.80
2019-01-23T01:59:53.567Z,122.67
2019-01-23T02:02:33.484Z,129.70
2019-01-23T02:05:13.337Z,133.35
2019-01-23T02:07:53.278Z,127.95
2019-01-23T02:10:32.670Z,128.40
2019-01-23T02:13:13.067Z,132.03
2019-01-23T02:15:52.927Z,126.67
2019-01-23T02:18:32.974Z,128.87
2019-01-23T02:21:13.253Z,134.47
2019-01-23T02:23:53.507Z,125.55
2019-01-23T02:26:32.773Z,130.75
2019-01-23T02:29:12.386Z,136.45
2019-01-23T02:31:52.652Z,128.45
2019-01-23T02:34:32.435Z,133.97
2019-01-23T02:37:11.854Z,125.85
2019-01-23T02:39:51.829Z,133.82
2019-01-23T02:42:32.206Z,123.47
2019-01-23T02:45:11.690Z,124.90
2019-01-23T02:47:51.698Z,123.05
2019-01-23T02:50:31.693Z,133.67
2019-01-23T02:53:12.009Z,126.10
2019-01-23T02:55:51.725Z,127.75
2019-01-23T02:58:31.907Z,135.70
2019-01-23T03:01:11.833Z,133.85
2019-01-23T03:03:51.962Z,132.20
2019-01-23T03:06:31.323Z,130.97
2019-01-23T03:09:11.263Z,132.35
2019-01-23T03:11:51.415Z,138.32
2019-01-23T03:14:31.341Z,132.10
2019-01-23T03:17:11.227Z,130.12
2019-01-23T03:19:51.478Z,127.35
2019-01-23T03:22:31.305Z,119.42
2019-01-23T03:25:11.414Z,130.03
2019-01-23T03:27:51.525Z,126.45
2019-01-23T03:30:31.518Z,122.50
2019-01-23T03:33:11.755Z,129.95
2019-01-23T03:35:51.926Z,131.10
2019-01-23T03:38:32.065Z,130.52
2019-01-23T03:41:12.121Z,132.85
2019-01-23T03:43:52.376Z,126.85
2019-01-23T03:46:32.208Z,127.80
2019-01-23T03:49:12.245Z,127.27
2019-01-23T03:51:51.873Z,140.85
2019-01-23T03:54:32.255Z,125.80
2019-01-23T03:57:12.066Z,133.57
2019-01-23T03:59:52.403Z,126.82
2019-01-23T04:02:32.153Z,129.53
2019-01-23T04:05:12.069Z,121.65
2019-01-23T04:07:51.943Z,124.18
2019-01-23T04:10:31.977Z,135.30
2019-01-23T04:13:11.917Z,127.62
2019-01-23T04:15:51.963Z,134.03
2019-01-23T04:18:32.152Z,135.45
2019-01-23T04:21:12.242Z,126.20
2019-01-23T04:23:52.156Z,127.15
2019-01-23T04:26:32.207Z,133.12
2019-01-23T04:29:12.378Z,134.55
2019-01-23T04:31:52.565Z,126.70
2019-01-23T04:34:32.728Z,122.85
2019-01-23T04:37:12.572Z,130.60
2019-01-23T04:39:52.826Z,133.15
2019-01-23T04:42:33.074Z,122.98
2019-01-23T04:45:12.700Z,131.37
2019-01-23T04:47:52.401Z,129.03
2019-01-23T04:50:34.324Z,132.37
2019-01-23T04:53:16.193Z,125.80
2019-01-23T04:55:56.357Z,125.65
2019-01-23T04:58:36.385Z,139.72
2019-01-23T05:01:16.531Z,128.02
2019-01-23T05:03:56.762Z,134.00
2019-01-23T05:06:36.945Z,142.77
2019-01-23T05:09:17.901Z,158.50
2019-01-23T05:11:57.972Z,148.85
2019-01-23T05:14:38.005Z,160.07
2019-01-23T05:17:18.035Z,147.45
2019-01-23T05:19:58.124Z,148.97
2019-01-23T05:22:38.407Z,147.37
2019-01-23T05:25:18.546Z,150.38
2019-01-23T05:27:58.842Z,134.45
2019-01-23T05:30:38.626Z,137.75
2019-01-23T05:33:18.672Z,133.37
2019-01-23T05:35:58.825Z,130.78
2019-01-23T05:38:38.958Z,133.22
2019-01-23T05:41:18.848Z,131.03
2019-01-23T05:43:59.043Z,134.32
2019-01-23T05:46:39.318Z,124.87
2019-01-23T05:49:19.138Z,126.90
2019-01-23T05:51:59.244Z,135.50
2019-01-23T05:54:39.422Z,129.40
2019-01-23T05:57:19.547Z,128.82
2019-01-23T06:00:02.355Z,128.75
2019-01-23T06:02:41.654Z,135.60
2019-01-23T06:05:21.563Z,129.45
2019-01-23T06:08:00.825Z,122.75
2019-01-23T06:10:40.714Z,125.53
2019-01-23T06:13:20.931Z,137.90
2019-01-23T06:16:00.832Z,123.67
2019-01-23T06:18:40.142Z,127.38
2019-01-23T06:21:20.103Z,131.22
2019-01-23T06:24:00.110Z,133.27
2019-01-23T06:26:40.548Z,125.53
2019-01-23T06:29:20.472Z,130.43
2019-01-23T06:32:00.634Z,131.32
2019-01-23T06:34:40.754Z,128.97
2019-01-23T06:37:20.598Z,123.13
2019-01-23T06:40:00.996Z,125.75
2019-01-23T06:42:40.791Z,134.55
2019-01-23T06:45:20.874Z,128.80
2019-01-23T06:48:00.283Z,130.12
2019-01-23T06:50:40.591Z,123.13
2019-01-23T06:53:20.334Z,126.27
2019-01-23T06:56:00.552Z,123.25
2019-01-23T06:58:40.466Z,128.47
2019-01-23T07:01:20.662Z,125.38
2019-01-23T07:04:00.776Z,131.40
2019-01-23T07:06:41.126Z,134.37
2019-01-23T07:09:20.911Z,126.42
2019-01-23T07:12:00.910Z,126.65
2019-01-23T07:14:40.927Z,118.67
2019-01-23T07:17:20.948Z,117.87
2019-01-23T07:20:01.157Z,128.80
2019-01-23T07:22:41.060Z,124.33
2019-01-23T07:25:21.097Z,121.37
2019-01-23T07:28:01.091Z,120.05
2019-01-23T07:30:40.471Z,133.37
2019-01-23T07:33:20.852Z,124.30
2019-01-23T07:36:00.779Z,132.63
2019-01-23T07:38:40.921Z,129.68
2019-01-23T07:41:21.150Z,124.92
2019-01-23T07:44:01.468Z,131.22
2019-01-23T07:46:41.331Z,127.00
2019-01-23T07:49:21.530Z,130.47
2019-01-23T07:52:01.724Z,129.57
2019-01-23T07:54:41.699Z,131.10
2019-01-23T07:57:21.059Z,128.20
2019-01-23T08:00:01.088Z,131.97
2019-01-23T08:02:41.314Z,135.22
2019-01-23T08:05:24.360Z,131.90
2019-01-23T08:08:04.836Z,135.85
2019-01-23T08:10:44.843Z,127.02
2019-01-23T08:13:24.841Z,127.00
2019-01-23T08:16:05.047Z,136.40
2019-01-23T08:18:45.431Z,136.90
2019-01-23T08:21:25.212Z,129.68
2019-01-23T08:24:05.339Z,134.45
2019-01-23T08:26:45.440Z,143.62
2019-01-23T08:29:25.638Z,142.03
2019-01-23T08:32:05.906Z,140.88
2019-01-23T08:34:46.028Z,131.37
2019-01-23T08:37:26.171Z,138.07
2019-01-23T08:40:06.175Z,134.22
2019-01-23T08:42:43.910Z,142.90
2019-01-23T08:45:30.251Z,137.72
2019-01-23T08:48:09.690Z,135.78
2019-01-23T08:50:49.878Z,145.82
2019-01-23T08:53:30.273Z,134.27
2019-01-23T08:56:10.093Z,134.90
2019-01-23T08:58:47.675Z,137.32
2019-01-23T09:01:33.928Z,139.00
2019-01-23T09:04:13.530Z,136.30
2019-01-23T09:06:53.655Z,135.65
2019-01-23T09:09:33.773Z,128.10
2019-01-23T09:12:13.951Z,136.88
2019-01-23T09:14:54.246Z,135.52
2019-01-23T09:17:34.203Z,136.72
2019-01-23T09:20:14.309Z,138.92
2019-01-23T09:22:54.508Z,132.80
2019-01-23T09:25:34.923Z,135.93
2019-01-23T09:28:14.974Z,131.12
2019-01-23T09:30:54.921Z,136.92
2019-01-23T09:33:34.996Z,137.85
2019-01-23T09:36:15.337Z,136.20
2019-01-23T09:38:55.211Z,134.70
2019-01-23T09:41:35.443Z,133.95
2019-01-23T09:44:15.163Z,145.92
2019-01-23T09:46:55.239Z,140.20
2019-01-23T09:49:35.084Z,134.67
2019-01-23T09:52:15.446Z,127.72
2019-01-23T09:54:55.280Z,123.75
2019-01-23T09:57:35.600Z,167.80
2019-01-23T10:00:15.844Z,135.00
2019-01-23T10:02:56.006Z,129.30
2019-01-23T10:05:36.082Z,133.70
2019-01-23T10:08:16.327Z,141.28
2019-01-23T10:10:56.413Z,137.25
2019-01-23T10:13:36.553Z,138.82
2019-01-23T10:16:15.996Z,139.25
2019-01-23T10:18:56.785Z,134.52
2019-01-23T10:21:36.919Z,143.05
2019-01-23T10:24:16.472Z,142.50
2019-01-23T10:26:56.365Z,137.25
2019-01-23T10:29:36.535Z,142.15
2019-01-23T10:32:16.773Z,144.17
2019-01-23T10:34:56.583Z,147.05
2019-01-23T10:37:36.599Z,137.03
2019-01-23T10:40:16.743Z,138.82
2019-01-23T10:42:57.035Z,142.03
2019-01-23T10:45:36.893Z,139.85
2019-01-23T10:48:16.910Z,127.60
2019-01-23T10:50:56.993Z,138.82
2019-01-23T10:53:36.889Z,130.97
2019-01-23T10:56:17.194Z,134.47
2019-01-23T10:58:56.953Z,132.40
2019-01-23T11:01:37.059Z,146.98
2019-01-23T11:04:17.143Z,134.55
2019-01-23T11:06:57.014Z,143.47
2019-01-23T11:09:37.305Z,138.92
2019-01-23T11:12:17.171Z,140.52
2019-01-23T11:14:57.130Z,141.77
2019-01-23T11:17:37.491Z,139.47
2019-01-23T11:20:17.193Z,150.45
2019-01-23T11:22:57.314Z,139.35
2019-01-23T11:25:37.441Z,140.43
2019-01-23T11:28:17.276Z,142.65
2019-01-23T11:30:57.354Z,141.40
2019-01-23T11:33:37.366Z,142.77
2019-01-23T11:36:17.555Z,146.95
2019-01-23T11:38:57.819Z,136.37
2019-01-23T11:41:37.885Z,147.65
2019-01-23T11:44:17.879Z,152.90
2019-01-23T11:46:57.769Z,150.87
2019-01-23T11:49:37.342Z,139.90
2019-01-23T11:52:17.306Z,147.37
2019-01-23T11:54:57.398Z,145.77
2019-01-23T11:57:37.265Z,155.95
2019-01-23T12:00:17.404Z,148.23
2019-01-23T12:02:57.516Z,143.43
2019-01-23T12:05:37.645Z,141.80
2019-01-23T12:08:17.777Z,155.45
2019-01-23T12:10:58.100Z,151.80
2019-01-23T12:13:37.959Z,142.20
2019-01-23T12:16:18.149Z,146.37
2019-01-23T12:18:58.113Z,147.87
2019-01-23T12:21:38.074Z,147.07
2019-01-23T12:24:17.309Z,145.95
2019-01-23T12:26:57.350Z,146.32
2019-01-23T12:29:37.484Z,149.42
2019-01-23T12:32:17.485Z,155.85
2019-01-23T12:34:57.564Z,158.22
2019-01-23T12:37:38.988Z,157.05
2019-01-23T12:40:18.626Z,165.55
2019-01-23T12:42:58.591Z,161.50
2019-01-23T12:45:38.672Z,157.12
2019-01-23T12:48:17.954Z,162.22
2019-01-23T12:50:57.925Z,164.70
2019-01-23T12:53:38.194Z,156.35
2019-01-23T12:56:17.925Z,158.35
2019-01-23T12:58:57.899Z,171.65
2019-01-23T13:01:41.915Z,160.15
2019-01-23T13:04:19.004Z,154.87
2019-01-23T13:06:58.986Z,165.30
2019-01-23T13:09:39.068Z,155.93
2019-01-23T13:12:05.570Z,167.53
2019-01-23T13:14:32.045Z,168.30
2019-01-23T13:16:58.432Z,170.13
2019-01-23T13:19:25.036Z,160.30
2019-01-23T13:21:51.413Z,152.83
2019-01-23T13:24:17.816Z,161.27
2019-01-23T13:26:44.249Z,156.70
2019-01-23T13:29:10.940Z,153.43
2019-01-23T13:31:37.590Z,162.57
2019-01-23T13:34:04.423Z,160.13
2019-01-23T13:36:31.077Z,158.00
2019-01-23T13:38:58.483Z,159.57
2019-01-23T13:41:25.140Z,165.13
2019-01-23T13:43:51.514Z,161.40
2019-01-23T13:46:18.153Z,158.03
2019-01-23T13:48:44.692Z,164.90
2019-01-23T13:51:11.363Z,158.10
2019-01-23T13:53:37.737Z,156.40
2019-01-23T13:56:04.227Z,159.67
2019-01-23T13:58:30.614Z,160.43
2019-01-23T14:00:57.099Z,155.93
2019-01-23T14:03:23.429Z,161.65
2019-01-23T14:05:49.801Z,154.38
2019-01-23T14:08:16.508Z,169.20
2019-01-23T14:10:43.017Z,171.55
2019-01-23T14:13:09.511Z,163.12
2019-01-23T14:15:37.600Z,156.95
2019-01-23T14:18:04.664Z,172.40
2019-01-23T14:20:31.051Z,168.15
2019-01-23T14:22:57.451Z,156.70
2019-01-23T14:25:23.874Z,174.45
2019-01-23T14:27:50.380Z,153.27
2019-01-23T14:30:34.650Z,170.70
2019-01-23T14:33:01.024Z,169.80
2019-01-23T14:35:28.127Z,162.20
2019-01-23T14:38:00.523Z,154.32
2019-01-23T14:40:23.191Z,152.97
2019-01-23T14:42:50.956Z,167.68
2019-01-23T14:45:18.450Z,160.85
2019-01-23T14:47:45.122Z,171.93
2019-01-23T14:50:13.488Z,164.30
2019-01-23T14:52:41.573Z,172.02
2019-01-23T14:55:08.835Z,156.97
2019-01-23T14:57:35.522Z,166.43
2019-01-23T15:00:05.514Z,166.45
2019-01-23T15:02:31.887Z,164.37
2019-01-23T15:04:58.441Z,167.37
2019-01-23T15:07:25.098Z,162.65
2019-01-23T15:09:51.815Z,156.87
2019-01-23T15:12:18.192Z,177.82
2019-01-23T15:14:44.569Z,170.12
2019-01-23T15:17:11.960Z,149.38
2019-01-23T15:19:38.453Z,158.87
2019-01-23T15:22:04.897Z,154.38
2019-01-23T15:24:31.251Z,161.90
2019-01-23T15:26:57.710Z,169.15
2019-01-23T15:29:24.323Z,167.43
2019-01-23T15:31:50.724Z,173.02
2019-01-23T15:34:17.104Z,163.28
2019-01-23T15:36:44.768Z,169.43
2019-01-23T15:39:11.157Z,155.12
2019-01-23T15:41:37.821Z,154.87
2019-01-23T15:44:04.311Z,164.62
2019-01-23T15:46:30.692Z,160.90
2019-01-23T15:48:57.173Z,166.50
2019-01-23T15:51:23.542Z,158.63
2019-01-23T15:53:49.953Z,157.75
2019-01-23T15:56:16.677Z,163.60
2019-01-23T15:58:43.062Z,161.35
2019-01-23T16:01:09.739Z,149.30
2019-01-23T16:03:37.206Z,168.95
2019-01-23T16:06:03.816Z,161.25
2019-01-23T16:08:30.497Z,160.85
2019-01-23T16:10:56.855Z,159.77
2019-01-23T16:13:23.410Z,165.03
2019-01-23T16:15:49.941Z,173.38
2019-01-23T16:18:16.676Z,161.68
2019-01-23T16:20:43.088Z,157.93
2019-01-23T16:23:09.768Z,163.95
2019-01-23T16:25:36.151Z,166.65
2019-01-23T16:28:02.724Z,157.03
2019-01-23T16:30:33.011Z,159.93
2019-01-23T16:32:59.343Z,166.60
2019-01-23T16:35:25.799Z,151.65
2019-01-23T16:37:52.409Z,158.65
2019-01-23T16:40:19.142Z,159.37
2019-01-23T16:42:45.534Z,163.40
2019-01-23T16:45:17.310Z,157.60
2019-01-23T16:47:45.699Z,167.87
2019-01-23T16:50:21.844Z,157.65
2019-01-23T16:52:48.515Z,156.70
2019-01-23T16:55:15.016Z,172.50
2019-01-23T16:57:42.273Z,163.68
2019-01-23T17:00:12.146Z,158.50
2019-01-23T17:02:38.946Z,160.10
2019-01-23T17:05:09.933Z,169.37
2019-01-23T17:07:36.632Z,152.15
2019-01-23T17:10:06.938Z,152.47
2019-01-23T17:12:33.335Z,155.93
2019-01-23T17:14:59.723Z,170.82
2019-01-23T17:17:26.222Z,148.78
2019-01-23T17:19:52.591Z,150.68
2019-01-23T17:22:18.995Z,158.78
2019-01-23T17:24:45.376Z,151.27
2019-01-23T17:27:11.765Z,146.82
2019-01-23T17:29:38.277Z,157.67
2019-01-23T17:32:04.759Z,164.97
2019-01-23T17:34:31.647Z,159.27
2019-01-23T17:36:58.289Z,159.93
2019-01-23T17:39:24.959Z,159.50
2019-01-23T17:41:51.421Z,166.12
2019-01-23T17:44:18.186Z,153.05
2019-01-23T17:46:44.875Z,157.25
2019-01-23T17:49:11.233Z,154.70
2019-01-23T17:51:37.696Z,157.52
2019-01-23T17:54:05.191Z,158.72
2019-01-23T17:56:31.584Z,157.32
2019-01-23T17:58:58.075Z,158.97
2019-01-23T18:01:24.447Z,163.80
2019-01-23T18:03:50.839Z,170.55
2019-01-23T18:06:17.249Z,161.75
2019-01-23T18:08:43.662Z,151.10
2019-01-23T18:11:10.055Z,148.38
2019-01-23T18:13:36.445Z,158.85
2019-01-23T18:16:03.818Z,159.97
2019-01-23T18:18:30.356Z,170.75
2019-01-23T18:20:56.741Z,169.32
2019-01-23T18:23:23.116Z,156.32
2019-01-23T18:25:49.487Z,173.35
2019-01-23T18:28:15.861Z,174.10
2019-01-23T18:30:49.561Z,174.18
2019-01-23T18:33:19.712Z,188.68
2019-01-23T18:35:55.860Z,169.60
2019-01-23T18:38:26.048Z,173.80
2019-01-23T18:41:16.157Z,164.85
2019-01-23T18:43:49.360Z,182.55
2019-01-23T18:46:36.179Z,178.78
2019-01-23T18:49:24.064Z,178.02
2019-01-23T18:52:11.951Z,172.45
2019-01-23T18:54:40.403Z,178.60
2019-01-23T18:57:10.613Z,184.22
2019-01-23T18:59:36.986Z,184.85
2019-01-23T19:02:03.688Z,188.30
2019-01-23T19:04:30.150Z,182.45
2019-01-23T19:06:56.652Z,171.90
2019-01-23T19:09:23.414Z,173.75
2019-01-23T19:11:49.818Z,178.68
2019-01-23T19:14:16.554Z,177.50
2019-01-23T19:16:42.953Z,179.53
2019-01-23T19:19:09.313Z,176.70
2019-01-23T19:21:36.983Z,171.62
2019-01-23T19:24:03.353Z,188.37
2019-01-23T19:26:29.878Z,177.17
2019-01-23T19:28:56.528Z,179.05
2019-01-23T19:31:22.917Z,173.45
2019-01-23T19:33:50.339Z,184.07
2019-01-23T19:36:16.820Z,184.67
2019-01-23T19:38:43.209Z,173.97
2019-01-23T19:41:10.086Z,176.75
2019-01-23T19:43:36.486Z,193.85
2019-01-23T19:46:03.153Z,185.22
2019-01-23T19:48:29.596Z,184.70
2019-01-23T19:50:56.025Z,190.57
2019-01-23T19:53:22.410Z,194.85
2019-01-23T19:55:49.943Z,175.22
2019-01-23T19:58:16.292Z,201.27
2019-01-23T20:00:43.701Z,187.90
2019-01-23T20:03:10.095Z,184.05
2019-01-23T20:05:36.521Z,188.00
2019-01-23T20:08:03.340Z,188.90
2019-01-23T20:10:29.748Z,181.47
2019-01-23T20:12:56.139Z,182.17
2019-01-23T20:15:22.740Z,191.28
2019-01-23T20:17:51.224Z,182.97
2019-01-23T20:20:17.604Z,202.47
2019-01-23T20:22:44.282Z,207.20
2019-01-23T20:25:18.500Z,193.72
2019-01-23T20:27:44.886Z,198.70
2019-01-23T20:30:21.124Z,188.78
2019-01-23T20:32:47.798Z,189.30
2019-01-23T20:35:14.536Z,180.63
2019-01-23T20:37:43.547Z,207.03
2019-01-23T20:40:11.124Z,186.00
2019-01-23T20:42:37.505Z,201.45
2019-01-23T20:45:07.932Z,178.87
2019-01-23T20:47:34.307Z,205.83
2019-01-23T20:50:01.038Z,194.25
2019-01-23T20:52:27.564Z,199.15
2019-01-23T20:54:53.939Z,208.38
2019-01-23T20:57:20.611Z,212.38
2019-01-23T20:59:47.630Z,212.08
2019-01-23T21:02:14.224Z,203.05
2019-01-23T21:04:41.087Z,184.40
2019-01-23T21:07:07.512Z,215.72
2019-01-23T21:09:33.943Z,194.45
2019-01-23T21:12:00.394Z,197.30
2019-01-23T21:14:26.837Z,220.07
2019-01-23T21:16:53.206Z,212.23
2019-01-23T21:19:19.955Z,200.25
2019-01-23T21:21:46.399Z,194.93
2019-01-23T21:24:12.793Z,207.18
2019-01-23T21:26:39.263Z,219.40
2019-01-23T21:29:05.804Z,215.20
2019-01-23T21:31:32.230Z,216.35
2019-01-23T21:33:58.695Z,225.68
2019-01-23T21:36:25.058Z,223.18
2019-01-23T21:38:51.743Z,207.75
2019-01-23T21:41:18.191Z,204.23
2019-01-23T21:43:44.695Z,215.82
2019-01-23T21:46:11.415Z,213.45
2019-01-23T21:48:37.828Z,205.05
2019-01-23T21:51:04.445Z,196.00
2019-01-23T21:53:31.087Z,199.77
2019-01-23T21:55:57.944Z,208.93
2019-01-23T21:58:24.598Z,213.15
2019-01-23T22:00:51.316Z,214.45
2019-01-23T22:03:18.049Z,206.68
2019-01-23T22:05:44.545Z,208.17
2019-01-23T22:08:12.098Z,217.57
2019-01-23T22:10:38.547Z,208.38
2019-01-23T22:13:05.081Z,214.80
2019-01-23T22:15:32.214Z,207.87
2019-01-23T22:18:00.007Z,207.00
2019-01-23T22:20:26.774Z,210.17
2019-01-23T22:22:53.272Z,231.70
2019-01-23T22:25:23.945Z,221.68
2019-01-23T22:27:50.450Z,227.65
2019-01-23T22:30:21.948Z,233.32
2019-01-23T22:32:48.509Z,219.30
2019-01-23T22:35:15.614Z,219.75
2019-01-23T22:37:42.116Z,222.75
2019-01-23T22:40:11.698Z,220.25
2019-01-23T22:42:38.152Z,244.25
2019-01-23T22:45:08.200Z,227.43
2019-01-23T22:47:34.583Z,241.08
2019-01-23T22:50:01.066Z,220.60
2019-01-23T22:52:27.483Z,234.87
2019-01-23T22:54:53.861Z,246.65
2019-01-23T22:57:20.532Z,221.30
2019-01-23T22:59:46.896Z,224.10
2019-01-23T23:02:13.758Z,207.92
2019-01-23T23:04:41.167Z,214.80
2019-01-23T23:07:07.548Z,210.28
2019-01-23T23:09:34.042Z,209.80
2019-01-23T23:12:00.715Z,220.85
2019-01-23T23:14:27.109Z,184.15
2019-01-23T23:16:53.539Z,209.90
2019-01-23T23:19:19.936Z,234.87
2019-01-23T23:21:46.548Z,202.55
2019-01-23T23:24:13.258Z,208.20
2019-01-23T23:26:39.948Z,200.35
2019-01-23T23:29:07.526Z,212.85
2019-01-23T23:31:38.150Z,206.68
2019-01-23T23:34:09.954Z,202.68
2019-01-23T23:36:33.846Z,184.55
2019-01-23T23:39:00.351Z,190.85
2019-01-23T23:41:26.704Z,202.68
2019-01-23T23:43:53.231Z,178.50
2019-01-23T23:46:19.847Z,197.80
2019-01-23T23:48:46.344Z,204.82
2019-01-23T23:51:12.762Z,178.53
2019-01-23T23:53:39.277Z,174.30
2019-01-23T23:56:05.779Z,187.12
2019-01-23T23:58:32.259Z,187.60
